Country
Station

 

Weather  for  Winchester Regional  -  United States    United States

  
16 °C (61 °F)
    
 
 

Current METAR for Winchester Regional is :

KOKV 231015Z AUTO 00000KT 2 1/2SM BR OVC003 16/16 A2986 RMK AO2

 

This is a report for Winchester Regional - United States.
 
The report was made 13 minutes ago, at 10:15 UTC .
The wind was calm.
 
The temperature was 16 °C (61 °F), with a dew-point at 16 °C (61 °F).
The atmospheric pressure was 1011 hPa (29.86 inHg).
The relative humidity was 100.0%.
 
The sky was overcast from a height of 91 meter (300 feet)
 
The overall visibility was 4023 meter (13200 feet).
 
Currently mist.

 
 
 
 

Country :   A   B   C   D   E   F   G   H   I   J   K   L   M   N   O   P   Q   R   S   T   U   V   W   Y   Z

 

Site Info  |  Disclaimer  |  Credits  |  Privacy
Contact us  |  Add to favorites
© 2013-2018 METARs - All rights reserved